Itu, Brazil
Current Conditions -  °F | °C
As of 12:00 AM on Tuesday 21 Oct 2014 (Local Time) from SBKP Reporting Station
Few Clouds Few Clouds  
Wind Chill: 66°   Ceiling: Unl
Heat Index: 66°   Visibility: 6mi
Dew Point: 57°   Wind: 20mph
Humidity: 73%   Direction: 160°SSE
Pressure: 30.09"   Gusts: NA
Location:  23.26°S, 47.3°W
Report Text: SBKP 210300Z 16017KT 9999 FEW017 19/14 Q1019
Loading
Personal Weather Stations






























Interactive Weather Map
Tropical Storm Tracking
New forecast layout! Learn more

10-Day Weather Forecast

Advertisements
Track Severe Weather on mobile